Time;durP1;ratioP1;P1;durP2;ratioP2;P2;SDS_P1;SDS_P2;PMS_P1;PMS_P2;Temp;Humidity;BMP_temperature;BMP_pressure;BME280_temperature;BME280_humidity;BME280_pressure;Samples;Min_cycle;Max_cycle;Signal;HPM_P1;HPM_P2
2023/12/22 00:01:30;;;;;;;33.85;7.45;;;7.70;1.00;;;;;;5028908;28;20055;-75
2023/12/22 00:03:56;;;;;;;28.90;8.15;;;7.30;99.90;;;;;;5036180;28;20137;-76
2023/12/22 00:06:22;;;;;;;27.40;7.47;;;9.60;99.90;;;;;;5018454;28;20095;-77
2023/12/22 00:08:48;;;;;;;28.38;7.30;;;7.20;53.60;;;;;;5014724;28;20093;-75
2023/12/22 00:11:14;;;;;;;28.17;7.25;;;7.10;1.00;;;;;;5000623;28;20048;-74
2023/12/22 00:13:39;;;;;;;26.95;6.53;;;9.80;99.90;;;;;;5038315;28;20038;-80
2023/12/22 00:16:05;;;;;;;33.25;6.68;;;9.30;99.90;;;;;;4982795;28;20374;-80
2023/12/22 00:18:31;;;;;;;31.27;7.10;;;9.30;22.20;;;;;;5031762;28;20370;-74
2023/12/22 00:20:57;;;;;;;19.27;5.32;;;9.20;99.90;;;;;;5015131;28;20544;-79
2023/12/22 00:23:23;;;;;;;16.50;4.95;;;7.70;1.00;;;;;;5021515;28;20512;-80
2023/12/22 00:25:48;;;;;;;21.50;5.10;;;8.80;99.90;;;;;;5014515;28;20046;-81
2023/12/22 00:28:14;;;;;;;19.83;4.57;;;6.90;99.90;;;;;;4966035;28;20405;-78
2023/12/22 00:30:39;;;;;;;20.88;4.93;;;9.20;99.90;;;;;;4998326;28;20037;-76
2023/12/22 00:33:05;;;;;;;24.52;5.93;;;9.60;42.20;;;;;;5016416;28;20040;-79
2023/12/22 00:35:31;;;;;;;17.20;5.13;;;9.60;1.00;;;;;;4999368;28;20041;-78
2023/12/22 00:37:57;;;;;;;20.48;5.50;;;7.50;1.00;;;;;;4981580;28;20041;-78
2023/12/22 00:40:22;;;;;;;22.45;5.72;;;9.70;99.90;;;;;;4998222;28;20394;-78
2023/12/22 00:42:48;;;;;;;25.15;6.00;;;9.30;99.90;;;;;;4987821;28;20036;-80
2023/12/22 00:45:14;;;;;;;20.27;4.60;;;8.10;99.90;;;;;;4993426;28;20037;-78
2023/12/22 00:47:39;;;;;;;11.68;3.17;;;7.80;99.90;;;;;;5014150;28;20132;-80
2023/12/22 00:50:06;;;;;;;11.55;3.22;;;7.50;99.90;;;;;;4998517;28;20037;-81
2023/12/22 00:52:32;;;;;;;13.63;3.83;;;8.30;99.90;;;;;;4998750;28;20401;-79
2023/12/22 00:54:58;;;;;;;12.77;3.50;;;8.70;99.90;;;;;;5022843;28;20052;-80
2023/12/22 00:57:23;;;;;;;24.50;5.10;;;7.70;37.90;;;;;;5034152;28;20033;-81
2023/12/22 00:59:49;;;;;;;21.17;4.80;;;8.70;99.90;;;;;;5034409;28;20127;-77
2023/12/22 01:02:15;;;;;;;22.02;5.90;;;7.90;72.30;;;;;;5017797;28;20219;-80
2023/12/22 01:04:41;;;;;;;25.10;5.75;;;9.40;11.30;;;;;;5025156;28;20095;-78
2023/12/22 01:07:08;;;;;;;20.50;6.18;;;9.60;99.90;;;;;;5002145;28;20430;-79
2023/12/22 01:09:34;;;;;;;26.13;6.22;;;8.30;33.30;;;;;;5018375;28;20049;-81
2023/12/22 01:12:02;;;;;;;25.17;5.60;;;8.20;99.90;;;;;;5034996;28;20037;-76
2023/12/22 01:14:28;;;;;;;18.75;5.00;;;9.00;99.90;;;;;;5023655;28;20496;-76
2023/12/22 01:16:54;;;;;;;18.98;4.68;;;9.00;99.90;;;;;;5019524;28;20051;-79
2023/12/22 01:19:20;;;;;;;22.25;4.60;;;9.20;92.70;;;;;;5053712;28;20358;-77
2023/12/22 01:21:46;;;;;;;19.17;5.00;;;7.80;97.30;;;;;;5036738;28;20119;-79
2023/12/22 01:24:12;;;;;;;25.35;5.60;;;9.40;84.20;;;;;;5036788;28;20040;-78
2023/12/22 01:26:37;;;;;;;34.45;7.35;;;8.40;79.50;;;;;;5012444;28;20044;-81
2023/12/22 01:29:03;;;;;;;25.70;6.32;;;8.40;81.10;;;;;;5036877;28;20123;-75
2023/12/22 01:31:29;;;;;;;29.67;6.15;;;7.90;99.90;;;;;;5037051;28;20033;-75
2023/12/22 01:33:55;;;;;;;36.60;7.70;;;7.70;33.30;;;;;;5036627;28;20098;-77
2023/12/22 01:36:20;;;;;;;26.55;7.28;;;7.70;99.90;;;;;;5029308;28;20114;-78
2023/12/22 01:38:46;;;;;;;34.17;8.15;;;9.30;99.90;;;;;;5044283;28;20079;-77
2023/12/22 01:41:12;;;;;;;34.63;7.85;;;8.10;99.90;;;;;;5016986;28;20374;-76
2023/12/22 01:43:37;;;;;;;33.05;7.18;;;8.10;99.90;;;;;;5017196;28;20045;-76
2023/12/22 01:46:04;;;;;;;33.92;7.50;;;7.90;99.90;;;;;;5005115;28;20084;-75
2023/12/22 01:48:31;;;;;;;29.48;7.03;;;9.40;99.90;;;;;;5013841;28;20081;-75
2023/12/22 01:50:58;;;;;;;34.00;8.05;;;8.10;99.90;;;;;;5013254;28;20565;-76
2023/12/22 01:53:26;;;;;;;38.22;8.50;;;9.00;1.00;;;;;;5013744;28;20056;-78
2023/12/22 01:55:54;;;;;;;27.52;6.22;;;7.90;99.90;;;;;;4997061;28;20080;-76
2023/12/22 01:58:20;;;;;;;12.70;3.63;;;9.40;99.90;;;;;;5043603;28;20045;-77
2023/12/22 02:00:46;;;;;;;12.85;3.85;;;8.30;99.90;;;;;;5020385;28;20037;-76
2023/12/22 02:03:13;;;;;;;14.38;3.85;;;9.40;99.90;;;;;;5004762;28;20045;-77
2023/12/22 02:05:41;;;;;;;19.10;4.38;;;9.00;99.90;;;;;;5020819;28;20041;-75
2023/12/22 02:08:06;;;;;;;17.70;4.72;;;8.40;99.90;;;;;;5039196;28;20110;-76
2023/12/22 02:10:32;;;;;;;19.60;5.00;;;9.20;99.90;;;;;;5023042;28;20049;-76
2023/12/22 02:12:58;;;;;;;25.10;5.75;;;7.70;99.90;;;;;;5000788;28;20052;-77
2023/12/22 02:15:24;;;;;;;23.48;6.18;;;8.40;1.00;;;;;;5001140;28;20041;-80
2023/12/22 02:18:01;;;;;;;25.45;5.65;;;9.50;97.60;;;;;;5013721;28;20032;-81
2023/12/22 02:20:27;;;;;;;24.80;6.13;;;9.50;99.90;;;;;;5040419;28;20250;-79
2023/12/22 02:22:53;;;;;;;21.25;5.35;;;9.60;99.90;;;;;;4988418;28;20037;-78
2023/12/22 02:25:19;;;;;;;18.67;4.22;;;9.00;2.30;;;;;;5004475;28;20044;-80
2023/12/22 02:27:48;;;;;;;10.80;3.22;;;9.00;1.00;;;;;;5001375;28;20488;-77
2023/12/22 02:30:24;;;;;;;11.32;2.80;;;7.90;1.00;;;;;;5044906;28;20070;-79
2023/12/22 02:32:54;;;;;;;10.25;3.20;;;7.80;43.80;;;;;;5020695;28;20480;-78
2023/12/22 02:35:22;;;;;;;15.20;3.50;;;9.10;99.90;;;;;;5037253;28;20041;-80
2023/12/22 02:37:49;;;;;;;15.43;3.25;;;8.40;99.90;;;;;;5019534;28;20495;-78
2023/12/22 02:40:17;;;;;;;19.60;3.60;;;9.20;78.90;;;;;;5012034;28;20033;-77
2023/12/22 02:42:43;;;;;;;15.48;3.67;;;7.70;98.10;;;;;;5021899;28;20095;-78
2023/12/22 02:45:17;;;;;;;15.00;3.78;;;8.70;99.90;;;;;;5004609;28;20029;-78
2023/12/22 02:47:43;;;;;;;21.23;5.18;;;9.40;99.90;;;;;;5036772;28;20118;-76
2023/12/22 02:50:10;;;;;;;16.73;4.22;;;7.70;99.90;;;;;;5010996;28;20121;-78
2023/12/22 02:52:36;;;;;;;17.58;4.65;;;7.60;99.90;;;;;;5037042;28;20439;-80
2023/12/22 02:55:02;;;;;;;21.50;5.60;;;7.70;99.90;;;;;;5037054;28;20045;-77
2023/12/22 02:57:28;;;;;;;21.88;5.80;;;8.60;99.90;;;;;;5020420;28;20049;-78
2023/12/22 02:59:54;;;;;;;25.80;6.63;;;9.20;99.90;;;;;;5043701;28;20074;-77
2023/12/22 03:02:19;;;;;;;20.65;5.95;;;9.20;99.90;;;;;;4987124;28;20045;-77
2023/12/22 03:04:48;;;;;;;24.35;6.03;;;8.60;99.90;;;;;;4985145;28;20129;-80
2023/12/22 03:07:14;;;;;;;18.90;5.30;;;8.90;99.90;;;;;;4986155;28;20084;-77
2023/12/22 03:09:41;;;;;;;15.82;4.07;;;7.40;1.00;;;;;;5019193;28;20053;-77
2023/12/22 03:12:07;;;;;;;12.02;3.10;;;9.30;38.80;;;;;;5042181;28;20041;-80
2023/12/22 03:14:34;;;;;;;12.38;3.50;;;8.00;28.80;;;;;;5020368;28;20040;-80
2023/12/22 03:17:04;;;;;;;13.43;3.90;;;6.70;1.00;;;;;;5035777;28;20128;-76
2023/12/22 03:19:31;;;;;;;15.68;3.88;;;8.30;99.90;;;;;;5019730;28;20136;-78
2023/12/22 03:21:57;;;;;;;13.07;3.30;;;9.20;23.00;;;;;;5043751;28;20048;-78
2023/12/22 03:24:23;;;;;;;13.00;3.35;;;7.00;18.10;;;;;;5019611;28;20493;-76
2023/12/22 03:26:49;;;;;;;12.57;3.40;;;8.10;1.00;;;;;;5016199;28;20045;-79
2023/12/22 03:29:15;;;;;;;14.85;3.17;;;6.90;1.00;;;;;;4985248;28;20041;-76
2023/12/22 03:31:41;;;;;;;16.60;3.95;;;8.90;1.00;;;;;;5003826;28;20025;-76
2023/12/22 03:34:07;;;;;;;14.68;3.83;;;9.10;1.00;;;;;;5036900;28;20045;-77
2023/12/22 03:36:33;;;;;;;18.13;4.22;;;7.80;1.00;;;;;;5020674;28;20436;-75
2023/12/22 03:38:59;;;;;;;19.77;4.32;;;7.00;98.40;;;;;;5036788;28;20044;-77
2023/12/22 03:41:24;;;;;;;21.50;5.03;;;8.90;99.90;;;;;;5008799;28;20392;-80
2023/12/22 03:43:50;;;;;;;19.92;5.55;;;7.10;67.60;;;;;;5021303;28;20098;-76
2023/12/22 03:46:16;;;;;;;25.65;5.22;;;7.90;99.90;;;;;;5002977;28;20040;-77
2023/12/22 03:48:41;;;;;;;23.42;6.10;;;7.90;59.80;;;;;;5035417;28;20069;-78
2023/12/22 03:51:07;;;;;;;17.45;4.10;;;9.50;1.00;;;;;;5018700;28;20045;-80
2023/12/22 03:53:33;;;;;;;15.75;4.18;;;9.70;1.00;;;;;;5026703;28;20062;-78
2023/12/22 03:55:58;;;;;;;15.80;4.25;;;8.20;99.90;;;;;;5018985;28;20119;-76
2023/12/22 03:58:26;;;;;;;15.00;3.67;;;9.30;99.90;;;;;;5019118;28;20041;-80
2023/12/22 04:00:52;;;;;;;15.98;4.03;;;8.10;99.90;;;;;;5019009;28;20155;-78
2023/12/22 04:03:17;;;;;;;20.00;4.43;;;8.20;99.90;;;;;;5019589;28;20105;-79
2023/12/22 04:05:43;;;;;;;22.10;4.70;;;9.50;99.90;;;;;;5002999;28;20478;-78
2023/12/22 04:08:09;;;;;;;16.20;4.43;;;8.70;82.20;;;;;;5015106;28;20053;-83
2023/12/22 04:10:35;;;;;;;16.42;3.80;;;8.30;99.90;;;;;;5015623;28;20048;-85
2023/12/22 04:13:00;;;;;;;14.52;3.90;;;9.80;99.90;;;;;;4997928;28;20036;-80
2023/12/22 04:15:26;;;;;;;15.55;4.50;;;9.60;62.20;;;;;;5018771;28;20037;-84
2023/12/22 04:17:51;;;;;;;17.25;4.40;;;8.30;1.00;;;;;;5018710;28;20047;-80
2023/12/22 04:20:17;;;;;;;19.80;5.30;;;9.80;61.60;;;;;;5002090;28;20068;-80
2023/12/22 04:22:43;;;;;;;24.58;6.47;;;9.50;41.90;;;;;;4987720;28;20481;-82
2023/12/22 04:25:08;;;;;;;32.85;6.80;;;8.30;99.90;;;;;;5054057;28;20036;-84
2023/12/22 04:27:35;;;;;;;24.42;5.45;;;8.20;99.90;;;;;;5038496;28;20435;-80
2023/12/22 04:30:01;;;;;;;25.55;5.97;;;10.00;99.90;;;;;;5033882;28;20117;-81
2023/12/22 04:32:27;;;;;;;29.45;6.53;;;8.10;99.90;;;;;;4983090;28;20125;-78
2023/12/22 04:34:52;;;;;;;22.55;6.40;;;9.70;99.90;;;;;;5047418;28;20036;-77
2023/12/22 04:37:18;;;;;;;24.55;5.95;;;8.70;99.90;;;;;;5054758;28;20037;-81
2023/12/22 04:39:44;;;;;;;25.48;6.38;;;9.60;99.90;;;;;;5009867;28;20052;-81
2023/12/22 04:42:09;;;;;;;26.42;6.05;;;9.50;1.00;;;;;;5017796;28;20054;-82
2023/12/22 04:44:35;;;;;;;20.92;5.20;;;9.90;99.90;;;;;;5001902;28;20053;-79
2023/12/22 04:47:01;;;;;;;19.67;4.68;;;10.10;99.90;;;;;;5001529;28;20049;-78
2023/12/22 04:49:27;;;;;;;15.20;4.18;;;9.40;99.90;;;;;;5017689;28;20041;-81
2023/12/22 04:51:55;;;;;;;20.35;5.03;;;10.20;99.90;;;;;;5009228;28;20041;-80
2023/12/22 04:54:21;;;;;;;21.70;5.93;;;10.10;99.90;;;;;;5002735;28;20041;-79
2023/12/22 04:56:47;;;;;;;20.13;5.15;;;9.30;99.90;;;;;;5002077;28;20036;-78
2023/12/22 04:59:12;;;;;;;20.75;5.05;;;9.60;99.90;;;;;;5018437;28;20080;-80
2023/12/22 05:01:38;;;;;;;19.48;5.13;;;9.00;99.90;;;;;;5007317;28;20051;-83
2023/12/22 05:04:04;;;;;;;21.73;5.50;;;9.10;82.30;;;;;;5004127;28;20044;-79
2023/12/22 05:06:29;;;;;;;21.73;5.03;;;9.30;99.70;;;;;;5001475;28;20444;-83
2023/12/22 05:08:56;;;;;;;23.25;5.60;;;9.30;99.90;;;;;;5017567;28;20045;-81
2023/12/22 05:11:22;;;;;;;25.92;6.00;;;10.10;99.90;;;;;;4981936;28;20045;-82
2023/12/22 05:13:48;;;;;;;25.55;5.50;;;10.10;99.90;;;;;;5001933;28;20369;-84
2023/12/22 05:16:14;;;;;;;16.85;4.72;;;10.00;99.90;;;;;;5017481;28;20040;-83
2023/12/22 05:18:40;;;;;;;20.52;5.78;;;10.20;99.90;;;;;;5011331;28;20040;-82
2023/12/22 05:21:06;;;;;;;19.77;5.50;;;9.50;99.90;;;;;;5006197;28;20667;-80
2023/12/22 05:23:32;;;;;;;22.67;5.50;;;9.50;99.90;;;;;;4999122;28;20077;-82
2023/12/22 05:25:58;;;;;;;23.85;5.32;;;10.30;99.90;;;;;;4998531;28;20049;-81
2023/12/22 05:28:23;;;;;;;28.48;6.15;;;10.20;99.90;;;;;;4997568;28;20045;-82
2023/12/22 05:30:49;;;;;;;27.58;6.07;;;9.10;99.90;;;;;;5015740;28;20040;-82
2023/12/22 05:33:15;;;;;;;20.13;5.30;;;10.10;83.40;;;;;;5017170;28;20155;-81
2023/12/22 05:35:40;;;;;;;24.15;5.82;;;9.50;64.00;;;;;;5017223;28;20409;-80
2023/12/22 05:38:06;;;;;;;21.95;5.68;;;9.40;87.40;;;;;;5033056;28;20064;-80
2023/12/22 05:40:32;;;;;;;24.75;5.95;;;9.20;99.90;;;;;;5022034;28;20063;-81
2023/12/22 05:42:58;;;;;;;22.98;5.45;;;9.20;99.90;;;;;;4996943;28;20110;-79
2023/12/22 05:45:26;;;;;;;26.17;6.15;;;10.10;99.90;;;;;;5027787;28;20044;-82
2023/12/22 05:47:52;;;;;;;22.52;6.40;;;9.00;99.90;;;;;;5033714;28;20041;-82
2023/12/22 05:50:18;;;;;;;27.48;6.15;;;9.50;99.90;;;;;;5001106;28;20052;-82
2023/12/22 05:52:44;;;;;;;26.27;5.88;;;9.30;99.90;;;;;;5017647;28;20033;-85
2023/12/22 05:55:10;;;;;;;22.60;5.55;;;10.30;99.90;;;;;;5016635;28;20076;-82
2023/12/22 05:57:36;;;;;;;22.40;6.55;;;10.30;99.90;;;;;;5017443;28;20068;-83
2023/12/22 06:00:06;;;;;;;25.83;5.43;;;10.30;99.90;;;;;;5033231;28;20128;-81
2023/12/22 06:02:32;;;;;;;21.85;5.22;;;9.10;99.90;;;;;;5008082;28;20132;-80
2023/12/22 06:04:58;;;;;;;22.27;6.35;;;10.20;99.90;;;;;;5017483;28;20397;-81
2023/12/22 06:07:24;;;;;;;23.55;5.78;;;10.30;99.90;;;;;;5000678;28;20041;-81
2023/12/22 06:09:50;;;;;;;27.63;6.00;;;9.70;99.90;;;;;;5029185;28;20512;-81
2023/12/22 06:12:16;;;;;;;23.05;6.40;;;10.20;99.90;;;;;;4988065;28;20048;-82
2023/12/22 06:14:41;;;;;;;23.40;5.82;;;9.50;99.90;;;;;;4997617;28;20037;-82
2023/12/22 06:17:07;;;;;;;19.10;4.82;;;10.10;99.90;;;;;;4997196;28;20038;-82
2023/12/22 06:19:35;;;;;;;19.33;5.30;;;10.20;99.90;;;;;;5012401;28;20039;-81
2023/12/22 06:22:00;;;;;;;20.75;5.18;;;9.30;99.90;;;;;;5053438;28;20460;-82
2023/12/22 06:24:27;;;;;;;25.58;5.90;;;9.20;99.90;;;;;;5004758;28;20099;-82
2023/12/22 06:26:53;;;;;;;25.85;5.85;;;10.10;99.90;;;;;;5016841;28;20404;-80
2023/12/22 06:29:18;;;;;;;32.58;7.38;;;9.90;99.90;;;;;;5001832;28;20056;-82
2023/12/22 06:31:44;;;;;;;22.63;5.63;;;9.50;99.90;;;;;;5003076;28;20401;-81
2023/12/22 06:34:10;;;;;;;24.27;5.22;;;9.30;99.90;;;;;;5015817;28;20060;-82
2023/12/22 06:36:35;;;;;;;30.88;5.97;;;9.70;99.90;;;;;;4999940;28;20032;-77
2023/12/22 06:39:01;;;;;;;24.13;6.10;;;9.10;99.90;;;;;;5000599;28;20041;-79
2023/12/22 06:41:29;;;;;;;23.15;5.45;;;9.40;99.90;;;;;;5047998;28;20044;-78
2023/12/22 06:43:55;;;;;;;26.85;6.20;;;10.20;99.90;;;;;;5017606;28;20033;-79
2023/12/22 06:46:23;;;;;;;16.95;4.70;;;9.70;1.00;;;;;;5003471;28;20051;-78
2023/12/22 06:48:49;;;;;;;11.85;3.53;;;9.80;4.50;;;;;;5036897;28;20041;-75
2023/12/22 06:51:34;;;;;;;18.05;4.43;;;7.90;91.00;;;;;;5046913;28;20032;-79
2023/12/22 06:54:00;;;;;;;;;;;8.00;25.20;;;;;;5021592;28;20505;-76
2023/12/22 06:56:27;;;;;;;19.00;3.97;;;7.90;99.90;;;;;;5019123;28;19960;-75
2023/12/22 06:58:56;;;;;;;8.70;2.95;;;9.10;1.00;;;;;;5036509;28;20045;-77
2023/12/22 07:01:33;;;;;;;14.20;3.30;;;8.00;1.00;;;;;;5043891;28;20054;-76
2023/12/22 07:04:01;;;;;;;14.20;3.92;;;8.10;1.00;;;;;;5033828;28;20448;-78
2023/12/22 07:06:29;;;;;;;20.95;4.65;;;8.40;1.00;;;;;;5035814;28;20401;-78
2023/12/22 07:09:19;;;;;;;17.27;4.45;;;8.00;1.00;;;;;;5036001;28;20534;-79
2023/12/22 07:11:47;;;;;;;17.98;4.53;;;8.50;1.00;;;;;;5044049;28;20036;-79
2023/12/22 07:14:13;;;;;;;15.65;4.20;;;8.40;1.00;;;;;;5026423;28;20397;-81
2023/12/22 07:16:39;;;;;;;18.80;4.32;;;9.30;1.00;;;;;;5037049;28;20039;-76
2023/12/22 07:19:05;;;;;;;20.08;5.22;;;9.60;17.70;;;;;;5035558;28;20041;-75
2023/12/22 07:21:31;;;;;;;23.60;5.13;;;9.70;99.90;;;;;;5035631;28;20136;-78
2023/12/22 07:23:58;;;;;;;18.65;4.90;;;8.50;12.50;;;;;;5018168;28;20049;-77
2023/12/22 07:26:26;;;;;;;22.08;5.32;;;8.50;1.00;;;;;;5033043;28;20053;-83
2023/12/22 07:28:52;;;;;;;18.33;4.10;;;9.80;99.90;;;;;;5018817;28;20033;-77
2023/12/22 07:31:18;;;;;;;13.68;3.72;;;9.60;75.10;;;;;;5036306;28;20091;-77
2023/12/22 07:33:43;;;;;;;12.85;3.40;;;9.50;99.90;;;;;;5002229;28;20928;-80
2023/12/22 07:36:09;;;;;;;15.30;4.25;;;9.50;1.00;;;;;;4999542;28;20457;-76
2023/12/22 07:38:36;;;;;;;20.02;4.68;;;7.50;99.90;;;;;;5026284;28;20037;-77
2023/12/22 07:41:02;;;;;;;16.15;4.35;;;8.70;90.20;;;;;;5009411;28;20031;-74
2023/12/22 07:43:29;;;;;;;20.92;4.70;;;7.60;1.00;;;;;;5013007;28;20490;-76
2023/12/22 07:45:55;;;;;;;18.63;4.35;;;7.90;1.00;;;;;;5028725;28;20048;-79
2023/12/22 07:48:20;;;;;;;22.23;5.07;;;9.40;99.90;;;;;;5027736;28;20033;-79
2023/12/22 07:50:46;;;;;;;24.80;5.28;;;9.40;7.40;;;;;;5044916;28;20504;-78
2023/12/22 07:53:12;;;;;;;24.92;5.70;;;7.50;1.00;;;;;;5042646;28;20037;-75
2023/12/22 07:55:38;;;;;;;22.13;5.10;;;7.50;99.90;;;;;;5043848;28;20040;-78
2023/12/22 07:58:07;;;;;;;21.83;5.72;;;8.60;99.90;;;;;;5027481;28;20225;-76
2023/12/22 08:00:33;;;;;;;26.17;5.55;;;7.60;99.90;;;;;;5044339;28;20044;-76
2023/12/22 08:03:00;;;;;;;22.92;5.45;;;8.80;99.90;;;;;;5043550;28;20033;-75
2023/12/22 08:05:26;;;;;;;23.65;6.10;;;7.90;99.90;;;;;;5027063;28;20052;-79
2023/12/22 08:07:52;;;;;;;21.45;5.43;;;7.90;99.90;;;;;;5026225;28;20056;-75
2023/12/22 08:10:17;;;;;;;20.45;4.70;;;7.80;99.90;;;;;;5043653;28;20058;-75
2023/12/22 08:12:43;;;;;;;22.85;5.28;;;9.80;99.90;;;;;;5026027;28;20370;-80
2023/12/22 08:15:12;;;;;;;21.83;5.13;;;8.90;99.90;;;;;;5042818;28;20097;-77
2023/12/22 08:17:46;;;;;;;24.40;4.53;;;7.70;99.90;;;;;;5027717;28;20040;-76
2023/12/22 08:20:16;;;;;;;26.40;5.88;;;8.60;99.90;;;;;;5036754;28;20567;-78
2023/12/22 08:22:43;;;;;;;28.27;5.60;;;8.20;1.00;;;;;;5041557;28;20037;-75
2023/12/22 08:25:09;;;;;;;25.80;5.53;;;9.20;99.90;;;;;;5025629;28;20399;-77
2023/12/22 08:27:35;;;;;;;27.25;6.40;;;9.80;99.90;;;;;;5043260;28;20048;-76
2023/12/22 08:30:00;;;;;;;23.50;5.43;;;8.20;1.00;;;;;;5041351;28;20110;-77
2023/12/22 08:32:26;;;;;;;23.63;5.10;;;10.20;1.00;;;;;;5044488;28;20036;-78
2023/12/22 08:34:52;;;;;;;22.65;5.90;;;8.10;1.00;;;;;;5041462;28;20029;-75
2023/12/22 08:37:17;;;;;;;25.17;5.47;;;10.50;1.00;;;;;;5009062;28;20521;-78
2023/12/22 08:39:43;;;;;;;20.15;4.85;;;10.50;1.00;;;;;;5045798;28;20437;-75
2023/12/22 08:42:08;;;;;;;20.25;4.90;;;8.40;1.00;;;;;;5041139;28;20048;-75
2023/12/22 08:44:34;;;;;;;24.05;4.70;;;10.30;99.90;;;;;;5010485;28;20036;-77
2023/12/22 08:47:00;;;;;;;18.40;4.75;;;10.30;1.00;;;;;;5042550;28;20036;-76
2023/12/22 08:49:26;;;;;;;17.15;4.50;;;8.10;99.90;;;;;;5008469;28;20041;-75
2023/12/22 08:51:51;;;;;;;18.35;4.70;;;8.70;99.90;;;;;;5044030;28;20036;-75
2023/12/22 08:54:17;;;;;;;18.98;4.03;;;10.10;99.90;;;;;;5009416;28;20052;-74
2023/12/22 08:56:43;;;;;;;17.95;4.32;;;10.80;99.90;;;;;;5039890;28;20044;-78
2023/12/22 08:59:08;;;;;;;19.85;5.35;;;10.80;99.90;;;;;;5026654;28;20119;-78
2023/12/22 09:01:34;;;;;;;21.77;4.55;;;10.70;1.00;;;;;;5009579;28;20478;-77
2023/12/22 09:04:01;;;;;;;22.02;5.30;;;8.80;99.90;;;;;;5042870;28;20040;-76
2023/12/22 09:06:27;;;;;;;20.20;4.43;;;11.10;99.90;;;;;;5039726;28;20045;-77
2023/12/22 09:08:53;;;;;;;17.42;3.90;;;8.40;99.90;;;;;;5009194;28;20051;-77
2023/12/22 09:11:20;;;;;;;22.70;5.18;;;8.30;1.00;;;;;;5043447;28;20040;-73
2023/12/22 09:13:46;;;;;;;25.40;5.15;;;8.70;1.00;;;;;;5042339;28;20033;-74
2023/12/22 09:16:15;;;;;;;20.73;4.97;;;8.60;1.00;;;;;;5042442;28;20090;-76
2023/12/22 09:18:42;;;;;;;20.85;4.88;;;11.00;1.00;;;;;;5024385;28;20045;-74
2023/12/22 09:21:07;;;;;;;18.88;5.20;;;9.20;29.90;;;;;;5024922;28;20037;-75
2023/12/22 09:23:33;;;;;;;27.58;5.63;;;8.60;1.00;;;;;;5042202;28;20107;-75
2023/12/22 09:25:59;;;;;;;20.25;4.35;;;10.30;1.00;;;;;;5041970;28;20051;-76
2023/12/22 09:28:25;;;;;;;18.58;4.85;;;8.50;26.90;;;;;;5009888;28;20040;-76
2023/12/22 09:30:51;;;;;;;19.38;4.70;;;11.20;42.30;;;;;;5042868;28;20072;-75
2023/12/22 09:33:16;;;;;;;20.23;4.18;;;11.30;62.00;;;;;;5036243;28;20142;-73
2023/12/22 09:35:42;;;;;;;18.30;3.92;;;8.80;99.90;;;;;;5030793;28;20036;-73
2023/12/22 09:38:12;;;;;;;22.55;4.30;;;11.10;73.20;;;;;;5033579;28;20094;-75
2023/12/22 09:40:38;;;;;;;20.80;4.43;;;10.80;1.00;;;;;;5028416;28;20056;-74
2023/12/22 09:43:06;;;;;;;15.10;3.45;;;11.30;99.90;;;;;;5000772;28;20033;-74
2023/12/22 09:45:33;;;;;;;21.15;4.60;;;9.90;94.30;;;;;;5033378;28;20029;-74
2023/12/22 09:48:00;;;;;;;22.50;4.85;;;11.00;1.00;;;;;;5016484;28;20033;-75
2023/12/22 09:50:30;;;;;;;17.50;4.43;;;11.30;19.60;;;;;;5031970;28;20039;-77
2023/12/22 09:52:57;;;;;;;17.92;3.85;;;10.30;1.00;;;;;;5016171;28;20041;-73
2023/12/22 09:55:23;;;;;;;15.57;3.45;;;9.60;99.90;;;;;;5032384;28;20043;-77
2023/12/22 09:57:50;;;;;;;17.88;4.55;;;9.80;1.00;;;;;;5018335;28;20587;-75
2023/12/22 10:00:17;;;;;;;14.00;3.60;;;9.80;99.90;;;;;;5031543;28;20557;-77
2023/12/22 10:02:45;;;;;;;16.73;4.15;;;11.50;99.90;;;;;;5030906;28;20128;-74
2023/12/22 10:05:13;;;;;;;16.38;3.75;;;9.30;99.90;;;;;;5009255;28;20046;-74
2023/12/22 10:07:40;;;;;;;14.32;3.63;;;11.40;99.90;;;;;;5013675;28;20052;-74
2023/12/22 10:10:08;;;;;;;15.50;3.45;;;9.40;99.90;;;;;;5026342;28;20128;-75
2023/12/22 10:12:34;;;;;;;16.60;5.18;;;10.70;99.90;;;;;;5032705;28;20127;-76
2023/12/22 10:15:01;;;;;;;16.58;3.58;;;11.20;99.90;;;;;;5030109;28;20102;-73
2023/12/22 10:17:27;;;;;;;23.83;5.50;;;11.00;99.90;;;;;;5031239;28;20037;-75
2023/12/22 10:19:53;;;;;;;20.40;3.55;;;9.20;99.90;;;;;;5035813;28;20033;-74
2023/12/22 10:22:18;;;;;;;18.10;4.00;;;11.50;99.90;;;;;;5012467;28;21624;-77
2023/12/22 10:24:50;;;;;;;19.00;4.32;;;11.20;99.90;;;;;;5005059;28;20033;-75
2023/12/22 10:27:23;;;;;;;18.15;4.18;;;9.60;99.90;;;;;;5028434;28;20124;-78
2023/12/22 10:29:56;;;;;;;16.40;3.53;;;9.30;99.90;;;;;;5034961;28;20045;-73
2023/12/22 10:32:22;;;;;;;12.13;3.13;;;9.40;87.00;;;;;;5035775;28;20064;-78
2023/12/22 10:34:51;;;;;;;16.17;3.60;;;9.50;99.90;;;;;;5035542;28;20041;-76
2023/12/22 10:37:17;;;;;;;13.73;3.90;;;10.40;99.90;;;;;;5029093;28;20045;-76
2023/12/22 10:39:42;;;;;;;19.48;4.05;;;11.70;54.20;;;;;;5032006;28;20045;-72
2023/12/22 10:42:09;;;;;;;15.57;3.20;;;9.40;1.00;;;;;;5032982;28;20051;-74
2023/12/22 10:44:39;;;;;;;20.63;3.83;;;11.60;99.90;;;;;;5032199;28;20099;-76
2023/12/22 10:47:06;;;;;;;20.13;4.32;;;10.50;99.90;;;;;;5015976;28;20037;-73
2023/12/22 10:49:32;;;;;;;17.65;3.72;;;9.80;99.90;;;;;;5012821;28;20040;-79
2023/12/22 10:51:58;;;;;;;15.02;3.85;;;9.40;99.90;;;;;;5033268;28;20041;-74
2023/12/22 10:54:30;;;;;;;16.65;4.50;;;10.90;99.90;;;;;;5035359;28;20412;-75
2023/12/22 10:57:00;;;;;;;12.90;2.80;;;11.70;1.00;;;;;;5018977;28;20500;-72
2023/12/22 10:59:32;;;;;;;11.30;3.17;;;11.80;99.90;;;;;;5017971;28;20044;-73
2023/12/22 11:01:58;;;;;;;16.58;3.70;;;9.60;99.90;;;;;;5032395;28;20400;-74
2023/12/22 11:04:35;;;;;;;14.63;3.42;;;11.50;99.90;;;;;;5047614;28;20501;-75
2023/12/22 11:07:03;;;;;;;12.68;3.55;;;12.00;6.50;;;;;;5030981;28;20171;-76
2023/12/22 11:09:32;;;;;;;9.98;3.05;;;11.90;99.90;;;;;;5016302;28;21254;-72
2023/12/22 11:12:00;;;;;;;15.43;3.53;;;9.50;99.90;;;;;;5028225;28;20423;-75
2023/12/22 11:14:28;;;;;;;16.80;3.72;;;10.20;99.90;;;;;;5013113;28;20031;-75
2023/12/22 11:16:55;;;;;;;20.45;4.05;;;12.10;99.90;;;;;;5033883;28;20076;-73
2023/12/22 11:19:24;;;;;;;15.80;3.75;;;12.10;99.90;;;;;;5030397;28;20115;-75
2023/12/22 11:21:51;;;;;;;21.02;4.47;;;11.80;99.90;;;;;;5045685;28;20585;-74
2023/12/22 11:24:18;;;;;;;19.45;4.07;;;9.80;99.90;;;;;;5019101;28;20079;-74
2023/12/22 11:26:47;;;;;;;20.77;4.93;;;11.90;99.90;;;;;;5030473;28;20049;-76
2023/12/22 11:29:17;;;;;;;14.45;4.22;;;10.10;99.90;;;;;;5013266;28;20048;-74
2023/12/22 11:31:46;;;;;;;16.02;4.05;;;12.00;99.90;;;;;;5029462;28;20036;-73
2023/12/22 11:34:14;;;;;;;17.60;3.67;;;10.90;99.90;;;;;;5018113;28;20037;-73
2023/12/22 11:36:40;;;;;;;13.40;3.47;;;11.00;99.90;;;;;;5017454;28;20551;-76
2023/12/22 11:39:06;;;;;;;17.45;3.95;;;9.90;99.90;;;;;;5035069;28;20048;-74
2023/12/22 11:41:35;;;;;;;14.77;4.00;;;11.40;99.90;;;;;;5032401;28;20041;-74
2023/12/22 11:44:04;;;;;;;23.70;4.85;;;10.10;99.90;;;;;;5030265;28;20041;-74
2023/12/22 11:46:30;;;;;;;12.95;3.42;;;11.20;99.90;;;;;;5029687;28;20036;-74
2023/12/22 11:48:56;;;;;;;15.23;3.78;;;10.40;99.90;;;;;;5014388;28;20041;-75
2023/12/22 11:51:22;;;;;;;20.65;4.20;;;12.10;99.90;;;;;;5031196;28;20533;-72
2023/12/22 11:53:48;;;;;;;15.55;3.65;;;9.90;99.90;;;;;;5013059;28;20037;-76
2023/12/22 11:56:13;;;;;;;16.75;3.40;;;10.40;99.90;;;;;;5025654;28;20041;-74
2023/12/22 11:58:54;;;;;;;18.27;4.05;;;12.40;99.90;;;;;;5010354;28;20056;-76
2023/12/22 12:01:24;;;;;;;15.77;3.58;;;10.00;99.90;;;;;;4999965;28;20033;-75
2023/12/22 12:04:03;;;;;;;13.48;3.08;;;9.90;99.90;;;;;;5016264;28;20044;-75
2023/12/22 12:06:29;;;;;;;18.33;3.65;;;12.00;99.90;;;;;;5016818;28;20110;-73
2023/12/22 12:08:56;;;;;;;15.23;4.07;;;12.00;1.00;;;;;;5027104;28;20049;-74
2023/12/22 12:11:23;;;;;;;19.20;4.97;;;12.40;99.90;;;;;;5016371;28;20049;-76
2023/12/22 12:13:50;;;;;;;17.48;4.30;;;11.20;1.00;;;;;;5016189;28;20033;-74
2023/12/22 12:16:21;;;;;;;20.27;4.10;;;10.60;99.90;;;;;;5033460;28;20033;-76
2023/12/22 12:18:47;;;;;;;16.63;4.55;;;10.70;1.00;;;;;;5023823;28;20106;-75
2023/12/22 12:21:15;;;;;;;12.68;3.28;;;9.90;1.00;;;;;;5027130;28;20477;-74
2023/12/22 12:23:41;;;;;;;16.58;4.43;;;11.80;99.90;;;;;;5028029;28;20040;-72
2023/12/22 12:26:08;;;;;;;18.65;4.07;;;9.90;99.90;;;;;;5032650;28;20059;-75
2023/12/22 12:28:35;;;;;;;12.15;3.75;;;12.10;99.90;;;;;;5034622;28;20041;-73
2023/12/22 12:31:06;;;;;;;14.85;3.65;;;11.00;99.90;;;;;;5033993;28;20047;-76
2023/12/22 12:33:32;;;;;;;14.13;3.45;;;9.90;99.90;;;;;;5027379;28;20048;-77
2023/12/22 12:36:00;;;;;;;18.70;3.80;;;12.30;99.90;;;;;;5027762;28;20119;-74
2023/12/22 12:38:48;;;;;;;19.08;3.42;;;9.90;99.90;;;;;;5034169;28;20044;-72
2023/12/22 12:41:15;;;;;;;19.38;4.57;;;10.30;99.90;;;;;;5017076;28;20045;-74
2023/12/22 12:43:43;;;;;;;13.90;3.42;;;12.00;99.90;;;;;;5032656;28;20041;-77